sensor_id;sensor_type;location;lat;lon;timestamp;temperature;humidity
13482;DHT22;6813;60.352;15.746;2023-05-16T00:01:49;12.60;89.40
13482;DHT22;6813;60.352;15.746;2023-05-16T00:04:15;12.60;89.10
13482;DHT22;6813;60.352;15.746;2023-05-16T00:06:42;12.50;89.40
13482;DHT22;6813;60.352;15.746;2023-05-16T00:09:08;12.30;90.00
13482;DHT22;6813;60.352;15.746;2023-05-16T00:11:33;12.30;89.40
13482;DHT22;6813;60.352;15.746;2023-05-16T00:13:59;12.20;90.40
13482;DHT22;6813;60.352;15.746;2023-05-16T00:16:26;12.00;90.50
13482;DHT22;6813;60.352;15.746;2023-05-16T00:18:54;11.90;90.30
13482;DHT22;6813;60.352;15.746;2023-05-16T00:21:22;12.10;87.60
13482;DHT22;6813;60.352;15.746;2023-05-16T00:23:48;12.20;88.80
13482;DHT22;6813;60.352;15.746;2023-05-16T00:26:14;12.20;89.40
13482;DHT22;6813;60.352;15.746;2023-05-16T00:28:39;12.30;89.40
13482;DHT22;6813;60.352;15.746;2023-05-16T00:31:05;12.40;89.40
13482;DHT22;6813;60.352;15.746;2023-05-16T00:33:32;12.40;89.50
13482;DHT22;6813;60.352;15.746;2023-05-16T00:35:58;12.40;89.50
13482;DHT22;6813;60.352;15.746;2023-05-16T00:38:24;12.50;89.60
13482;DHT22;6813;60.352;15.746;2023-05-16T00:40:49;12.50;89.30
13482;DHT22;6813;60.352;15.746;2023-05-16T00:43:15;12.50;89.40
13482;DHT22;6813;60.352;15.746;2023-05-16T00:45:41;12.60;89.90
13482;DHT22;6813;60.352;15.746;2023-05-16T00:48:06;12.60;89.80
13482;DHT22;6813;60.352;15.746;2023-05-16T00:50:35;12.60;89.70
13482;DHT22;6813;60.352;15.746;2023-05-16T00:53:01;12.60;89.80
13482;DHT22;6813;60.352;15.746;2023-05-16T00:55:27;12.60;90.00
13482;DHT22;6813;60.352;15.746;2023-05-16T00:57:52;12.70;90.20
13482;DHT22;6813;60.352;15.746;2023-05-16T01:00:19;12.60;90.10
13482;DHT22;6813;60.352;15.746;2023-05-16T01:02:45;12.60;90.40
13482;DHT22;6813;60.352;15.746;2023-05-16T01:05:11;12.60;90.50
13482;DHT22;6813;60.352;15.746;2023-05-16T01:07:37;12.60;90.50
13482;DHT22;6813;60.352;15.746;2023-05-16T01:10:05;12.60;90.40
13482;DHT22;6813;60.352;15.746;2023-05-16T01:15:31;12.50;91.10
13482;DHT22;6813;60.352;15.746;2023-05-16T01:18:11;12.40;91.30
13482;DHT22;6813;60.352;15.746;2023-05-16T01:20:48;12.40;91.10
13482;DHT22;6813;60.352;15.746;2023-05-16T01:23:50;12.40;87.20
13482;DHT22;6813;60.352;15.746;2023-05-16T01:26:27;12.60;88.10
13482;DHT22;6813;60.352;15.746;2023-05-16T01:28:53;12.60;90.20
13482;DHT22;6813;60.352;15.746;2023-05-16T01:31:20;12.50;90.80
13482;DHT22;6813;60.352;15.746;2023-05-16T01:33:46;12.40;91.40
13482;DHT22;6813;60.352;15.746;2023-05-16T01:36:29;12.40;91.40
13482;DHT22;6813;60.352;15.746;2023-05-16T01:44:42;12.20;92.20
13482;DHT22;6813;60.352;15.746;2023-05-16T01:47:11;12.20;92.30
13482;DHT22;6813;60.352;15.746;2023-05-16T01:49:50;12.10;92.30
13482;DHT22;6813;60.352;15.746;2023-05-16T01:53:05;12.20;92.30
13482;DHT22;6813;60.352;15.746;2023-05-16T01:55:27;12.20;92.10
13482;DHT22;6813;60.352;15.746;2023-05-16T01:57:54;12.20;91.90
13482;DHT22;6813;60.352;15.746;2023-05-16T02:00:21;12.30;91.60
13482;DHT22;6813;60.352;15.746;2023-05-16T02:02:47;12.30;91.60
13482;DHT22;6813;60.352;15.746;2023-05-16T02:05:13;12.30;91.50
13482;DHT22;6813;60.352;15.746;2023-05-16T02:07:38;12.40;91.50
13482;DHT22;6813;60.352;15.746;2023-05-16T02:10:06;12.30;91.80
13482;DHT22;6813;60.352;15.746;2023-05-16T02:12:32;12.30;91.80
13482;DHT22;6813;60.352;15.746;2023-05-16T02:14:57;12.30;91.90
13482;DHT22;6813;60.352;15.746;2023-05-16T02:17:23;12.20;91.90
13482;DHT22;6813;60.352;15.746;2023-05-16T02:19:48;12.10;91.90
13482;DHT22;6813;60.352;15.746;2023-05-16T02:22:14;11.90;92.90
13482;DHT22;6813;60.352;15.746;2023-05-16T02:24:40;11.70;93.10
13482;DHT22;6813;60.352;15.746;2023-05-16T02:27:05;11.60;93.10
13482;DHT22;6813;60.352;15.746;2023-05-16T02:29:31;11.60;92.90
13482;DHT22;6813;60.352;15.746;2023-05-16T02:31:57;11.70;92.80
13482;DHT22;6813;60.352;15.746;2023-05-16T02:34:23;11.70;93.00
13482;DHT22;6813;60.352;15.746;2023-05-16T02:36:48;11.60;92.90
13482;DHT22;6813;60.352;15.746;2023-05-16T02:39:14;11.60;92.90
13482;DHT22;6813;60.352;15.746;2023-05-16T02:41:40;11.60;92.80
13482;DHT22;6813;60.352;15.746;2023-05-16T02:44:06;11.60;92.80
13482;DHT22;6813;60.352;15.746;2023-05-16T02:46:33;11.60;92.90
13482;DHT22;6813;60.352;15.746;2023-05-16T02:48:59;11.50;93.40
13482;DHT22;6813;60.352;15.746;2023-05-16T02:51:27;11.50;93.40
13482;DHT22;6813;60.352;15.746;2023-05-16T02:53:53;11.50;93.50
13482;DHT22;6813;60.352;15.746;2023-05-16T02:56:21;11.50;93.70
13482;DHT22;6813;60.352;15.746;2023-05-16T02:58:47;11.50;93.80
13482;DHT22;6813;60.352;15.746;2023-05-16T03:01:14;11.60;93.80
13482;DHT22;6813;60.352;15.746;2023-05-16T03:03:40;11.50;94.30
13482;DHT22;6813;60.352;15.746;2023-05-16T03:06:06;11.40;94.80
13482;DHT22;6813;60.352;15.746;2023-05-16T03:08:33;11.30;95.10
13482;DHT22;6813;60.352;15.746;2023-05-16T03:10:59;11.30;95.60
13482;DHT22;6813;60.352;15.746;2023-05-16T03:13:25;11.40;95.50
13482;DHT22;6813;60.352;15.746;2023-05-16T03:15:51;11.40;95.60
13482;DHT22;6813;60.352;15.746;2023-05-16T03:18:17;11.50;96.10
13482;DHT22;6813;60.352;15.746;2023-05-16T03:20:43;11.50;96.30
13482;DHT22;6813;60.352;15.746;2023-05-16T03:23:08;11.50;96.00
13482;DHT22;6813;60.352;15.746;2023-05-16T03:25:35;11.60;96.50
13482;DHT22;6813;60.352;15.746;2023-05-16T03:28:04;11.50;97.20
13482;DHT22;6813;60.352;15.746;2023-05-16T03:30:32;11.50;97.70
13482;DHT22;6813;60.352;15.746;2023-05-16T03:32:57;11.40;98.10
13482;DHT22;6813;60.352;15.746;2023-05-16T03:35:23;11.40;98.00
13482;DHT22;6813;60.352;15.746;2023-05-16T03:37:49;11.50;97.40
13482;DHT22;6813;60.352;15.746;2023-05-16T03:40:14;11.70;97.10
13482;DHT22;6813;60.352;15.746;2023-05-16T03:42:40;11.80;96.80
13482;DHT22;6813;60.352;15.746;2023-05-16T03:45:06;11.80;96.80
13482;DHT22;6813;60.352;15.746;2023-05-16T03:47:32;11.70;97.60
13482;DHT22;6813;60.352;15.746;2023-05-16T03:49:58;11.50;98.30
13482;DHT22;6813;60.352;15.746;2023-05-16T03:52:24;11.40;98.50
13482;DHT22;6813;60.352;15.746;2023-05-16T03:54:50;11.30;98.50
13482;DHT22;6813;60.352;15.746;2023-05-16T03:57:15;11.30;98.50
13482;DHT22;6813;60.352;15.746;2023-05-16T03:59:41;11.50;98.60
13482;DHT22;6813;60.352;15.746;2023-05-16T04:02:07;11.60;98.20
13482;DHT22;6813;60.352;15.746;2023-05-16T04:04:33;11.70;98.10
13482;DHT22;6813;60.352;15.746;2023-05-16T04:07:00;11.80;97.70
13482;DHT22;6813;60.352;15.746;2023-05-16T04:09:25;11.90;97.30
13482;DHT22;6813;60.352;15.746;2023-05-16T04:11:51;12.10;97.20
13482;DHT22;6813;60.352;15.746;2023-05-16T04:14:17;12.20;96.90
13482;DHT22;6813;60.352;15.746;2023-05-16T04:16:43;12.20;97.10
13482;DHT22;6813;60.352;15.746;2023-05-16T04:19:08;12.10;97.80
13482;DHT22;6813;60.352;15.746;2023-05-16T04:21:34;11.90;98.10
13482;DHT22;6813;60.352;15.746;2023-05-16T04:24:01;11.70;98.90
13482;DHT22;6813;60.352;15.746;2023-05-16T04:26:26;11.80;98.70
13482;DHT22;6813;60.352;15.746;2023-05-16T04:28:52;12.00;98.40
13482;DHT22;6813;60.352;15.746;2023-05-16T04:31:18;12.10;98.00
13482;DHT22;6813;60.352;15.746;2023-05-16T04:33:43;12.20;97.90
13482;DHT22;6813;60.352;15.746;2023-05-16T04:36:10;12.30;97.80
13482;DHT22;6813;60.352;15.746;2023-05-16T04:38:36;12.30;97.80
13482;DHT22;6813;60.352;15.746;2023-05-16T04:41:02;12.40;97.80
13482;DHT22;6813;60.352;15.746;2023-05-16T04:43:28;12.40;97.70
13482;DHT22;6813;60.352;15.746;2023-05-16T04:45:54;12.50;97.30
13482;DHT22;6813;60.352;15.746;2023-05-16T04:48:20;12.50;97.10
13482;DHT22;6813;60.352;15.746;2023-05-16T04:50:46;12.60;97.20
13482;DHT22;6813;60.352;15.746;2023-05-16T04:53:11;12.50;98.20
13482;DHT22;6813;60.352;15.746;2023-05-16T04:55:39;12.40;99.00
13482;DHT22;6813;60.352;15.746;2023-05-16T04:58:05;12.20;99.90
13482;DHT22;6813;60.352;15.746;2023-05-16T05:00:31;12.00;99.90
13482;DHT22;6813;60.352;15.746;2023-05-16T05:02:57;12.10;99.90
13482;DHT22;6813;60.352;15.746;2023-05-16T05:05:22;12.20;99.90
13482;DHT22;6813;60.352;15.746;2023-05-16T05:07:48;12.30;99.90
13482;DHT22;6813;60.352;15.746;2023-05-16T05:10:14;12.40;99.40
13482;DHT22;6813;60.352;15.746;2023-05-16T05:12:40;12.60;98.90
13482;DHT22;6813;60.352;15.746;2023-05-16T05:15:06;12.70;98.30
13482;DHT22;6813;60.352;15.746;2023-05-16T05:17:32;12.80;97.10
13482;DHT22;6813;60.352;15.746;2023-05-16T05:19:57;13.10;96.10
13482;DHT22;6813;60.352;15.746;2023-05-16T05:22:23;13.10;95.60
13482;DHT22;6813;60.352;15.746;2023-05-16T05:24:49;13.20;95.40
13482;DHT22;6813;60.352;15.746;2023-05-16T05:27:15;13.20;95.10
13482;DHT22;6813;60.352;15.746;2023-05-16T05:29:40;13.30;95.30
13482;DHT22;6813;60.352;15.746;2023-05-16T05:32:06;13.30;95.10
13482;DHT22;6813;60.352;15.746;2023-05-16T05:34:32;13.20;96.00
13482;DHT22;6813;60.352;15.746;2023-05-16T05:36:58;13.30;96.30
13482;DHT22;6813;60.352;15.746;2023-05-16T05:39:24;13.30;96.30
13482;DHT22;6813;60.352;15.746;2023-05-16T05:41:50;13.30;96.10
13482;DHT22;6813;60.352;15.746;2023-05-16T05:44:16;13.40;95.30
13482;DHT22;6813;60.352;15.746;2023-05-16T05:46:42;13.50;94.30
13482;DHT22;6813;60.352;15.746;2023-05-16T05:49:08;13.60;94.10
13482;DHT22;6813;60.352;15.746;2023-05-16T05:51:33;13.60;93.80
13482;DHT22;6813;60.352;15.746;2023-05-16T05:54:00;13.70;93.50
13482;DHT22;6813;60.352;15.746;2023-05-16T05:56:26;13.80;92.50
13482;DHT22;6813;60.352;15.746;2023-05-16T05:58:52;13.80;91.90
13482;DHT22;6813;60.352;15.746;2023-05-16T06:01:17;13.80;91.80
13482;DHT22;6813;60.352;15.746;2023-05-16T06:03:45;13.80;91.90
13482;DHT22;6813;60.352;15.746;2023-05-16T06:06:11;13.90;91.60
13482;DHT22;6813;60.352;15.746;2023-05-16T06:08:37;13.90;91.70
13482;DHT22;6813;60.352;15.746;2023-05-16T06:11:02;13.80;91.90
13482;DHT22;6813;60.352;15.746;2023-05-16T06:13:28;13.90;91.90
13482;DHT22;6813;60.352;15.746;2023-05-16T06:15:54;13.90;91.50
13482;DHT22;6813;60.352;15.746;2023-05-16T06:18:20;14.00;91.90
13482;DHT22;6813;60.352;15.746;2023-05-16T06:20:46;14.00;91.90
13482;DHT22;6813;60.352;15.746;2023-05-16T06:23:12;14.10;91.60
13482;DHT22;6813;60.352;15.746;2023-05-16T06:25:38;14.20;91.50
13482;DHT22;6813;60.352;15.746;2023-05-16T06:28:03;14.30;91.10
13482;DHT22;6813;60.352;15.746;2023-05-16T06:30:29;14.40;90.80
13482;DHT22;6813;60.352;15.746;2023-05-16T06:32:55;14.50;90.90
13482;DHT22;6813;60.352;15.746;2023-05-16T06:35:21;14.60;90.60
13482;DHT22;6813;60.352;15.746;2023-05-16T06:37:47;14.60;90.60
13482;DHT22;6813;60.352;15.746;2023-05-16T06:40:13;14.70;90.50
13482;DHT22;6813;60.352;15.746;2023-05-16T06:42:38;14.80;90.70
13482;DHT22;6813;60.352;15.746;2023-05-16T06:45:05;14.80;90.90
13482;DHT22;6813;60.352;15.746;2023-05-16T06:47:31;14.80;91.60
13482;DHT22;6813;60.352;15.746;2023-05-16T06:49:57;14.80;91.90
13482;DHT22;6813;60.352;15.746;2023-05-16T06:52:22;14.80;91.90
13482;DHT22;6813;60.352;15.746;2023-05-16T06:54:48;14.80;92.70
13482;DHT22;6813;60.352;15.746;2023-05-16T06:57:14;14.80;93.40
13482;DHT22;6813;60.352;15.746;2023-05-16T06:59:40;14.90;92.80
13482;DHT22;6813;60.352;15.746;2023-05-16T07:02:06;15.10;93.10
13482;DHT22;6813;60.352;15.746;2023-05-16T07:04:31;15.30;92.90
13482;DHT22;6813;60.352;15.746;2023-05-16T07:06:58;15.50;92.40
13482;DHT22;6813;60.352;15.746;2023-05-16T07:09:24;15.80;91.80
13482;DHT22;6813;60.352;15.746;2023-05-16T07:11:50;16.00;91.50
13482;DHT22;6813;60.352;15.746;2023-05-16T07:14:16;16.20;90.20
13482;DHT22;6813;60.352;15.746;2023-05-16T07:16:41;16.30;89.20
13482;DHT22;6813;60.352;15.746;2023-05-16T07:19:08;16.40;88.60
13482;DHT22;6813;60.352;15.746;2023-05-16T07:21:34;16.40;86.60
13482;DHT22;6813;60.352;15.746;2023-05-16T07:24:00;16.40;87.00
13482;DHT22;6813;60.352;15.746;2023-05-16T07:26:25;16.40;87.10
13482;DHT22;6813;60.352;15.746;2023-05-16T07:28:51;16.40;86.30
13482;DHT22;6813;60.352;15.746;2023-05-16T07:31:17;16.40;87.20
13482;DHT22;6813;60.352;15.746;2023-05-16T07:33:44;16.40;86.60
13482;DHT22;6813;60.352;15.746;2023-05-16T07:36:12;16.50;85.80
13482;DHT22;6813;60.352;15.746;2023-05-16T07:38:38;16.60;84.80
13482;DHT22;6813;60.352;15.746;2023-05-16T07:41:04;16.70;85.00
13482;DHT22;6813;60.352;15.746;2023-05-16T07:43:30;16.80;84.70
13482;DHT22;6813;60.352;15.746;2023-05-16T07:45:56;16.90;83.90
13482;DHT22;6813;60.352;15.746;2023-05-16T07:48:22;16.90;84.20
13482;DHT22;6813;60.352;15.746;2023-05-16T07:50:48;17.00;84.60
13482;DHT22;6813;60.352;15.746;2023-05-16T07:53:13;17.10;83.90
13482;DHT22;6813;60.352;15.746;2023-05-16T07:55:39;17.10;83.50
13482;DHT22;6813;60.352;15.746;2023-05-16T07:58:05;17.20;82.00
13482;DHT22;6813;60.352;15.746;2023-05-16T08:00:30;17.40;84.30
13482;DHT22;6813;60.352;15.746;2023-05-16T08:02:56;17.60;85.00
13482;DHT22;6813;60.352;15.746;2023-05-16T08:05:22;17.80;84.60
13482;DHT22;6813;60.352;15.746;2023-05-16T08:07:48;18.00;83.80
13482;DHT22;6813;60.352;15.746;2023-05-16T08:10:14;18.20;83.00
13482;DHT22;6813;60.352;15.746;2023-05-16T08:12:40;18.40;82.40
13482;DHT22;6813;60.352;15.746;2023-05-16T08:15:06;18.60;82.00
13482;DHT22;6813;60.352;15.746;2023-05-16T08:17:32;18.80;80.90
13482;DHT22;6813;60.352;15.746;2023-05-16T08:19:58;19.00;80.80
13482;DHT22;6813;60.352;15.746;2023-05-16T08:22:26;19.20;80.70
13482;DHT22;6813;60.352;15.746;2023-05-16T08:24:52;19.50;81.60
13482;DHT22;6813;60.352;15.746;2023-05-16T08:27:18;19.70;78.70
13482;DHT22;6813;60.352;15.746;2023-05-16T08:29:44;19.90;78.50
13482;DHT22;6813;60.352;15.746;2023-05-16T08:32:09;20.10;78.30
13482;DHT22;6813;60.352;15.746;2023-05-16T08:34:35;20.30;76.50
13482;DHT22;6813;60.352;15.746;2023-05-16T08:37:01;20.60;78.10
13482;DHT22;6813;60.352;15.746;2023-05-16T08:39:27;20.80;77.10
13482;DHT22;6813;60.352;15.746;2023-05-16T08:41:54;20.60;75.00
13482;DHT22;6813;60.352;15.746;2023-05-16T08:44:21;20.80;75.90
13482;DHT22;6813;60.352;15.746;2023-05-16T08:46:51;21.00;75.40
13482;DHT22;6813;60.352;15.746;2023-05-16T08:49:17;21.30;74.80
13482;DHT22;6813;60.352;15.746;2023-05-16T08:51:45;21.50;70.70
13482;DHT22;6813;60.352;15.746;2023-05-16T08:54:13;21.70;68.20
13482;DHT22;6813;60.352;15.746;2023-05-16T08:56:41;21.80;67.20
13482;DHT22;6813;60.352;15.746;2023-05-16T08:59:07;21.90;68.10
13482;DHT22;6813;60.352;15.746;2023-05-16T09:01:33;22.10;67.60
13482;DHT22;6813;60.352;15.746;2023-05-16T09:04:00;22.20;68.10
13482;DHT22;6813;60.352;15.746;2023-05-16T09:06:27;22.40;66.00
13482;DHT22;6813;60.352;15.746;2023-05-16T09:08:53;22.60;64.90
13482;DHT22;6813;60.352;15.746;2023-05-16T09:11:19;22.70;65.20
13482;DHT22;6813;60.352;15.746;2023-05-16T09:13:46;22.80;63.00
13482;DHT22;6813;60.352;15.746;2023-05-16T09:16:17;22.80;65.80
13482;DHT22;6813;60.352;15.746;2023-05-16T09:18:57;22.90;59.30
13482;DHT22;6813;60.352;15.746;2023-05-16T09:21:28;22.90;59.30
13482;DHT22;6813;60.352;15.746;2023-05-16T09:23:54;23.00;59.70
13482;DHT22;6813;60.352;15.746;2023-05-16T09:26:21;22.70;60.60
13482;DHT22;6813;60.352;15.746;2023-05-16T09:28:47;22.90;60.80
13482;DHT22;6813;60.352;15.746;2023-05-16T09:31:23;22.90;59.20
13482;DHT22;6813;60.352;15.746;2023-05-16T09:33:55;23.30;58.70
13482;DHT22;6813;60.352;15.746;2023-05-16T09:36:21;23.50;60.00
13482;DHT22;6813;60.352;15.746;2023-05-16T09:38:46;23.80;59.30
13482;DHT22;6813;60.352;15.746;2023-05-16T09:41:12;24.00;56.60
13482;DHT22;6813;60.352;15.746;2023-05-16T09:43:40;24.20;56.90
13482;DHT22;6813;60.352;15.746;2023-05-16T09:46:06;24.30;57.90
13482;DHT22;6813;60.352;15.746;2023-05-16T09:48:32;24.40;56.70
13482;DHT22;6813;60.352;15.746;2023-05-16T09:50:57;24.40;57.50
13482;DHT22;6813;60.352;15.746;2023-05-16T09:53:29;24.50;56.30
13482;DHT22;6813;60.352;15.746;2023-05-16T09:56:00;24.40;55.90
13482;DHT22;6813;60.352;15.746;2023-05-16T09:58:38;24.40;55.90
13482;DHT22;6813;60.352;15.746;2023-05-16T10:01:05;24.40;56.00
13482;DHT22;6813;60.352;15.746;2023-05-16T10:03:34;24.50;55.40
13482;DHT22;6813;60.352;15.746;2023-05-16T10:06:01;24.40;55.60
13482;DHT22;6813;60.352;15.746;2023-05-16T10:08:30;23.30;57.30
13482;DHT22;6813;60.352;15.746;2023-05-16T10:10:55;22.60;58.60
13482;DHT22;6813;60.352;15.746;2023-05-16T10:13:27;21.60;59.80
13482;DHT22;6813;60.352;15.746;2023-05-16T10:15:55;21.00;62.60
13482;DHT22;6813;60.352;15.746;2023-05-16T10:18:28;20.60;63.30
13482;DHT22;6813;60.352;15.746;2023-05-16T10:20:56;20.80;64.80
13482;DHT22;6813;60.352;15.746;2023-05-16T10:23:23;21.00;66.50
13482;DHT22;6813;60.352;15.746;2023-05-16T10:25:50;21.20;64.40
13482;DHT22;6813;60.352;15.746;2023-05-16T10:28:17;21.00;64.30
13482;DHT22;6813;60.352;15.746;2023-05-16T10:30:46;20.80;64.00
13482;DHT22;6813;60.352;15.746;2023-05-16T10:33:14;20.50;65.40
13482;DHT22;6813;60.352;15.746;2023-05-16T10:35:43;20.40;66.40
13482;DHT22;6813;60.352;15.746;2023-05-16T10:38:10;20.20;65.60
13482;DHT22;6813;60.352;15.746;2023-05-16T10:40:37;19.90;66.10
13482;DHT22;6813;60.352;15.746;2023-05-16T10:43:05;19.70;68.00
13482;DHT22;6813;60.352;15.746;2023-05-16T10:45:31;19.80;69.10
13482;DHT22;6813;60.352;15.746;2023-05-16T10:47:58;19.80;69.00
13482;DHT22;6813;60.352;15.746;2023-05-16T10:50:42;19.90;67.80
13482;DHT22;6813;60.352;15.746;2023-05-16T10:53:31;20.00;68.10
13482;DHT22;6813;60.352;15.746;2023-05-16T10:58:38;20.30;67.30
13482;DHT22;6813;60.352;15.746;2023-05-16T11:01:34;20.40;67.20
13482;DHT22;6813;60.352;15.746;2023-05-16T11:14:39;20.60;66.50
13482;DHT22;6813;60.352;15.746;2023-05-16T11:19:50;21.10;66.00
13482;DHT22;6813;60.352;15.746;2023-05-16T11:27:26;20.50;65.00
13482;DHT22;6813;60.352;15.746;2023-05-16T11:29:54;20.30;67.70
13482;DHT22;6813;60.352;15.746;2023-05-16T11:32:22;20.10;66.50
13482;DHT22;6813;60.352;15.746;2023-05-16T11:34:50;20.00;67.20
13482;DHT22;6813;60.352;15.746;2023-05-16T11:37:17;20.40;66.60
13482;DHT22;6813;60.352;15.746;2023-05-16T11:39:44;20.90;67.00
13482;DHT22;6813;60.352;15.746;2023-05-16T11:42:09;21.40;64.80
13482;DHT22;6813;60.352;15.746;2023-05-16T11:44:35;22.00;65.00
13482;DHT22;6813;60.352;15.746;2023-05-16T11:47:02;22.50;69.50
13482;DHT22;6813;60.352;15.746;2023-05-16T11:49:28;22.80;62.80
13482;DHT22;6813;60.352;15.746;2023-05-16T11:51:54;22.90;65.70
13482;DHT22;6813;60.352;15.746;2023-05-16T11:54:22;23.10;64.60
13482;DHT22;6813;60.352;15.746;2023-05-16T11:56:49;23.30;66.20
13482;DHT22;6813;60.352;15.746;2023-05-16T11:59:16;23.40;63.10
13482;DHT22;6813;60.352;15.746;2023-05-16T12:01:42;23.60;63.20
13482;DHT22;6813;60.352;15.746;2023-05-16T12:06:35;23.60;59.90
13482;DHT22;6813;60.352;15.746;2023-05-16T12:09:01;23.40;59.90
13482;DHT22;6813;60.352;15.746;2023-05-16T12:11:39;23.20;60.30
13482;DHT22;6813;60.352;15.746;2023-05-16T12:14:06;22.80;60.80
13482;DHT22;6813;60.352;15.746;2023-05-16T12:16:32;21.90;61.10
13482;DHT22;6813;60.352;15.746;2023-05-16T12:18:59;21.50;64.30
13482;DHT22;6813;60.352;15.746;2023-05-16T12:21:26;21.10;64.30
13482;DHT22;6813;60.352;15.746;2023-05-16T12:23:55;20.70;65.70
13482;DHT22;6813;60.352;15.746;2023-05-16T12:26:27;20.30;67.90
13482;DHT22;6813;60.352;15.746;2023-05-16T12:28:58;20.10;68.30
13482;DHT22;6813;60.352;15.746;2023-05-16T12:31:28;19.90;69.20
13482;DHT22;6813;60.352;15.746;2023-05-16T12:33:55;19.70;70.30
13482;DHT22;6813;60.352;15.746;2023-05-16T12:36:22;19.60;70.70
13482;DHT22;6813;60.352;15.746;2023-05-16T12:38:49;19.50;72.10
13482;DHT22;6813;60.352;15.746;2023-05-16T12:41:22;19.70;74.60
13482;DHT22;6813;60.352;15.746;2023-05-16T12:43:49;19.70;77.00
13482;DHT22;6813;60.352;15.746;2023-05-16T12:46:15;20.00;77.90
13482;DHT22;6813;60.352;15.746;2023-05-16T12:48:41;20.10;79.00
13482;DHT22;6813;60.352;15.746;2023-05-16T12:51:18;20.10;78.60
13482;DHT22;6813;60.352;15.746;2023-05-16T12:54:10;19.80;80.60
13482;DHT22;6813;60.352;15.746;2023-05-16T12:56:40;19.30;81.20
13482;DHT22;6813;60.352;15.746;2023-05-16T12:59:06;19.10;81.20
13482;DHT22;6813;60.352;15.746;2023-05-16T13:01:33;19.00;82.10
13482;DHT22;6813;60.352;15.746;2023-05-16T13:04:00;19.10;82.70
13482;DHT22;6813;60.352;15.746;2023-05-16T13:06:55;19.30;84.10
13482;DHT22;6813;60.352;15.746;2023-05-16T13:09:22;19.50;80.60
13482;DHT22;6813;60.352;15.746;2023-05-16T13:11:48;19.80;77.90
13482;DHT22;6813;60.352;15.746;2023-05-16T13:14:14;19.70;74.10
13482;DHT22;6813;60.352;15.746;2023-05-16T13:16:42;19.40;77.90
13482;DHT22;6813;60.352;15.746;2023-05-16T13:19:08;19.10;80.50
13482;DHT22;6813;60.352;15.746;2023-05-16T13:21:33;19.10;79.60
13482;DHT22;6813;60.352;15.746;2023-05-16T13:24:10;18.80;78.90
13482;DHT22;6813;60.352;15.746;2023-05-16T13:26:48;18.60;80.00
13482;DHT22;6813;60.352;15.746;2023-05-16T13:29:14;18.50;79.50
13482;DHT22;6813;60.352;15.746;2023-05-16T13:31:40;18.30;78.90
13482;DHT22;6813;60.352;15.746;2023-05-16T13:34:05;18.10;80.10
13482;DHT22;6813;60.352;15.746;2023-05-16T13:36:31;17.90;81.00
13482;DHT22;6813;60.352;15.746;2023-05-16T13:38:57;17.70;82.90
13482;DHT22;6813;60.352;15.746;2023-05-16T13:41:22;17.80;82.20
13482;DHT22;6813;60.352;15.746;2023-05-16T13:43:48;17.90;83.50
13482;DHT22;6813;60.352;15.746;2023-05-16T13:46:14;17.60;83.60
13482;DHT22;6813;60.352;15.746;2023-05-16T13:48:39;17.60;84.40
13482;DHT22;6813;60.352;15.746;2023-05-16T13:51:06;17.60;84.60
13482;DHT22;6813;60.352;15.746;2023-05-16T13:53:32;17.60;85.50
13482;DHT22;6813;60.352;15.746;2023-05-16T13:55:58;17.60;86.00
13482;DHT22;6813;60.352;15.746;2023-05-16T13:58:24;17.60;84.20
13482;DHT22;6813;60.352;15.746;2023-05-16T14:00:50;17.70;83.50
13482;DHT22;6813;60.352;15.746;2023-05-16T14:03:15;17.80;83.80
13482;DHT22;6813;60.352;15.746;2023-05-16T14:05:41;18.00;83.70
13482;DHT22;6813;60.352;15.746;2023-05-16T14:08:07;18.00;81.80
13482;DHT22;6813;60.352;15.746;2023-05-16T14:10:32;18.00;82.70
13482;DHT22;6813;60.352;15.746;2023-05-16T14:12:58;18.00;84.20
13482;DHT22;6813;60.352;15.746;2023-05-16T14:15:24;18.00;84.20
13482;DHT22;6813;60.352;15.746;2023-05-16T14:17:49;18.00;84.70
13482;DHT22;6813;60.352;15.746;2023-05-16T14:20:15;18.10;84.90
13482;DHT22;6813;60.352;15.746;2023-05-16T14:22:41;18.30;85.60
13482;DHT22;6813;60.352;15.746;2023-05-16T14:25:07;18.10;84.30
13482;DHT22;6813;60.352;15.746;2023-05-16T14:27:33;18.10;86.40
13482;DHT22;6813;60.352;15.746;2023-05-16T14:29:59;18.30;84.70
13482;DHT22;6813;60.352;15.746;2023-05-16T14:32:24;18.50;84.70
13482;DHT22;6813;60.352;15.746;2023-05-16T14:34:50;18.70;83.90
13482;DHT22;6813;60.352;15.746;2023-05-16T14:37:16;19.00;84.20
13482;DHT22;6813;60.352;15.746;2023-05-16T14:39:44;19.00;82.10
13482;DHT22;6813;60.352;15.746;2023-05-16T14:42:11;18.90;80.30
13482;DHT22;6813;60.352;15.746;2023-05-16T14:44:37;19.00;82.50
13482;DHT22;6813;60.352;15.746;2023-05-16T14:47:03;18.90;83.20
13482;DHT22;6813;60.352;15.746;2023-05-16T14:49:29;18.90;81.60
13482;DHT22;6813;60.352;15.746;2023-05-16T14:51:54;18.70;82.50
13482;DHT22;6813;60.352;15.746;2023-05-16T14:54:21;18.50;83.40
13482;DHT22;6813;60.352;15.746;2023-05-16T14:56:46;18.40;83.20
13482;DHT22;6813;60.352;15.746;2023-05-16T14:59:12;18.50;83.00
13482;DHT22;6813;60.352;15.746;2023-05-16T15:01:38;18.50;82.30
13482;DHT22;6813;60.352;15.746;2023-05-16T15:04:04;18.40;83.60
13482;DHT22;6813;60.352;15.746;2023-05-16T15:06:29;18.30;83.90
13482;DHT22;6813;60.352;15.746;2023-05-16T15:08:55;18.30;84.40
13482;DHT22;6813;60.352;15.746;2023-05-16T15:11:21;18.30;83.50
13482;DHT22;6813;60.352;15.746;2023-05-16T15:13:47;18.10;83.00
13482;DHT22;6813;60.352;15.746;2023-05-16T15:16:13;17.90;83.70
13482;DHT22;6813;60.352;15.746;2023-05-16T15:18:39;17.90;84.10
13482;DHT22;6813;60.352;15.746;2023-05-16T15:21:05;18.00;84.30
13482;DHT22;6813;60.352;15.746;2023-05-16T15:23:31;18.10;83.00
13482;DHT22;6813;60.352;15.746;2023-05-16T15:25:57;18.10;83.70
13482;DHT22;6813;60.352;15.746;2023-05-16T15:28:23;18.10;84.30
13482;DHT22;6813;60.352;15.746;2023-05-16T15:30:50;18.10;85.50
13482;DHT22;6813;60.352;15.746;2023-05-16T15:33:16;18.10;84.60
13482;DHT22;6813;60.352;15.746;2023-05-16T15:35:41;18.30;84.20
13482;DHT22;6813;60.352;15.746;2023-05-16T15:38:07;18.30;83.90
13482;DHT22;6813;60.352;15.746;2023-05-16T15:40:33;18.20;84.20
13482;DHT22;6813;60.352;15.746;2023-05-16T15:42:59;18.10;84.00
13482;DHT22;6813;60.352;15.746;2023-05-16T15:45:25;17.90;83.00
13482;DHT22;6813;60.352;15.746;2023-05-16T15:47:51;17.80;84.20
13482;DHT22;6813;60.352;15.746;2023-05-16T15:50:16;17.80;85.30
13482;DHT22;6813;60.352;15.746;2023-05-16T15:52:42;17.80;85.90
13482;DHT22;6813;60.352;15.746;2023-05-16T15:55:08;17.90;86.30
13482;DHT22;6813;60.352;15.746;2023-05-16T15:57:36;17.80;86.90
13482;DHT22;6813;60.352;15.746;2023-05-16T16:00:02;17.80;87.30
13482;DHT22;6813;60.352;15.746;2023-05-16T16:02:28;17.70;89.10